Tiempo atmosférico en la estación meteorológica de La Pinilla, estación de esquí, Segovia (1860 m.)



Fecha
DESCASC
Temp. máxima en grados centígrados (hora)
DESCASC
Temp. mínima en grados centígrados (hora)
DESCASC
Temp. media en grados centígrados
DESCASC
Racha de viento máxima en m/sg (hora)
DESCASC
Velocidad máxima media en intervalos de 10 minutos(hora)
DESCASC
Precipitaciones diarias en mm
DESCASC
Precipitaciones de 00:00 a 06:00 en mm
DESCASC
Precipitaciones de 06:00 a 12:00 en mm
DESCASC
Precipitaciones de 12:00 a 18:00 en mm
DESCASC
Precipitaciones de 18:00 a 24:00 en mm
DESCASC
22-04-2019 7 (15:50) 1.3 (07:10) 4.1 16.67 (02:50) 10 (02:30) 0.2 0 0 0 0.2
21-04-2019 4.3 (00:00) 0.7 (07:10) 2.5 20.28 (22:10) 12.5 (05:10) 0 0 0 0 0
20-04-2019 10.9 (18:00) 4.3 (04:10) 7.6 29.17 (03:50) 15 (11:50) 0.4 0 0.2 0 0.2
19-04-2019 5.1 (18:50) 1.1 (06:10) 3.1 27.5 (20:40) 10.56 (00:10) 0.8 0.2 0.2 0.2 0.2
18-04-2019 7.8 (00:20) 1.2 (00:00) 4.5 26.94 (01:00) 10.83 (15:30) 0.8 0 0.2 0.2 0.4
17-04-2019 14.9 (16:00) 6 (00:00) 10.4 30.83 (02:40) 14.17 (05:40) 1 0.2 0.4 0.2 0.2
16-04-2019 11 (15:50) 0.4 (00:00) 5.7 24.17 (23:00) 13.89 (21:10) 1 0.2 0.2 0.4 0.2
15-04-2019 12.3 (17:20) 2.5 (00:00) 7.4 23.61 (13:40) 12.78 (03:30) 1.6 0.4 0.4 0.4 0.4
14-04-2019 10.8 (15:20) 4.5 (00:00) 7.7 14.72 (23:40) 10.56 (23:40) 1.2 0.4 0.2 0.4 0.2
13-04-2019 11.9 (15:10) -0.9 (-00:0) 5.5 8.33 (19:30) 3.61 (05:50) 1 0.2 0.4 0.2 0.2
12-04-2019 6.5 (18:00) -2.7 (-00:0) 1.9 8.89 (17:40) 3.89 (01:00) 1 0.2 0.4 0.2 0.2
11-04-2019 1.7 (18:50) -2.9 (-00:0) -0.6 14.72 (18:00) 8.89 (18:10) 1 0.2 0.4 0.2 0.2
10-04-2019 0.8 (19:00) -2.3 (-00:0) -0.7 19.44 (00:40) 7.78 (01:00) 1.4 0.4 0.4 0.2 0.4
09-04-2019 2.1 (13:10) -2.1 (-00:0) 0 18.33 (16:20) 7.78 (16:40) 1.6 0.4 0.4 0.6 0.2
08-04-2019 4.8 (17:10) -0.9 (-00:0) 2 17.78 (00:50) 6.11 (00:20) 2.4 0.6 0.6 0.6 0.6
07-04-2019 2 (23:59) -4 (-00:0) -1 19.44 (22:00) 10.28 (21:40) 0.2 0 0 0 0.2
06-04-2019 -0.9 (15:20) -5.1 (-00:0) -3 21.39 (18:20) 8.33 (12:30) 0 0 0 0 0
05-04-2019 0.6 (00:30) -4.1 (-00:0) -1.7 19.44 (02:50) 10.83 (07:40) 10.4 1.8 2.8 3.2 2.6
04-04-2019 4.6 (16:00) -7.3 (-00:0) -1.4 14.72 (17:10) 7.78 (18:50) 0 0 0 0 0
03-04-2019 4 (00:00) -5 (23:40) -0.5 15.83 (19:30) 6.94 (19:30) 0 0 0 0 0
02-04-2019 9.2 (16:40) 2.1 (00:00) 5.6 15.56 (23:20) 4.17 (07:30) 1.8 0 0 1.8 0
01-04-2019 7.5 (19:00) 0.8 (00:00) 4.2 14.17 (01:00) 10 (01:00) 0.2 0 0 0.2 0
31-03-2019 7.1 (12:20) 0.8 (00:00) 3.9 13.61 (01:10) 9.44 (01:20) 2.6 0 0 1.2 1.4
30-03-2019 9.2 (15:20) 0.5 (00:00) 4.8 18.33 (00:30) 12.22 (01:50) 0 0 0 0 0
29-03-2019 8.9 (15:50) 1.1 (00:00) 5 17.78 (22:40) 12.78 (09:20) 0 0 0 0 0
28-03-2019 12.2 (15:40) 1.5 (00:00) 6.8 13.33 (01:50) 10.28 (01:30) 0 0 0 0 0
27-03-2019 12.8 (14:40) 1.9 (00:00) 7.4 15.83 (22:10) 11.11 (22:10) 0 0 0 0 0
26-03-2019 11.4 (14:10) 2.1 (00:00) 6.7 22.22 (10:10) 13.89 (07:10) 0 0 0 0 0
25-03-2019 10.6 (16:00) 2.7 (00:00) 6.7 14.44 (00:20) 8.61 (01:50) 0 0 0 0 0

Gráficas

Temp. máximas Temp. mínimas Temp. medias Precipitaciones Rachas de viento máximas Velocidades máximas media en intervalos de 10 minutos

Datos horarios

Fecha y hora oficial Temperatura (ºC) Velocidad del viento (km/h) Dirección del viento Racha (km/h) Dirección de racha Precipitación (mm) Presión (hPa) Tendencia (hPa) Humedad (%)
2019-04-23 23:00:00 -2.3 10 Sudeste 31 Sudoeste 0 804.8 2 99
2019-04-23 22:00:00 -2 11 Sudeste 46 Sur 0 804.2 1.7 99
2019-04-23 21:00:00 -1.5 11 Noroeste 35 Sudoeste 0 803.4 1.6 97
2019-04-23 20:00:00 -1.2 21 Sudoeste 37 Sudoeste 0 802.8 1.4 94
2019-04-23 19:00:00 -0.7 14 Sudoeste 61 Oeste 0 802.5 1.1 93
2019-04-23 18:00:00 1.1 17 Oeste 50 Oeste 0 801.8 -0.1 79
2019-04-23 17:00:00 2.5 29 Sudoeste 64 Sudoeste 0 801.4 -0.2 71
2019-04-23 16:00:00 1.4 27 Sudoeste 57 Oeste 0 801.4 -0.3 83
2019-04-23 15:00:00 0.1 15 Sudoeste 60 Oeste 0 801.9 0 94
2019-04-23 14:00:00 1.4 17 Oeste 63 Sudoeste 0 801.6 0.2 91
2019-04-23 13:00:00 1.1 17 Oeste 56 Sudoeste 0 801.7 0.6 97
2019-04-23 12:00:00 1.4 18 Sudoeste 64 Sur 0 801.9 0.6 97
2019-04-23 11:00:00 1.7 35 Sudoeste 67 Sudoeste 0 801.4 0.6 95
2019-04-23 10:00:00 1.7 18 Noroeste 63 Oeste 0 801.1 -0.2 98
2019-04-23 09:00:00 2 17 Sudoeste 81 Sudoeste 0 801.3 -0.3 98
2019-04-23 08:00:00 2.5 13 Noroeste 68 Sudoeste 0 800.8 -1.4 91
2019-04-23 07:00:00 2.8 34 Sur 68 Sudoeste 0 801.3 -1.1 87
2019-04-23 06:00:00 2.7 33 Sur 69 Sudoeste 0 801.6 -1.9 89
2019-04-23 05:00:00 2.6 35 Sur 72 Sudoeste 0 802.2 -1.8 90
2019-04-23 04:00:00 3.5 38 Sur 84 Sudoeste 0 802.4 -2.2 82
2019-04-23 03:00:00 4 23 Sudoeste 49 Sudoeste 0 803.5 -1.4 87
2019-04-23 02:00:00 4.7 20 Sur 52 Sudoeste 0 804 -1.1 85
2019-04-23 01:00:00 4.9 18 Sudoeste 51 Sudoeste 0 804.6 -0.7 84
2019-04-23 00:00:00 5.1 19 Sur 45 Sur 0 804.9 -0.4 84
2019-04-22 23:00:00 4.8 29 Sur 42 Sur 0 805.1 -0.4 84
2019-04-22 22:00:00 4.6 27 Sur 40 Sur 0 805.3 -0.5 86
2019-04-22 21:00:00 4.5 25 Sur 32 Sur 0 805.3 -0.8 85
2019-04-22 20:00:00 5.9 12 Sur 27 Sur 0 805.5 -0.7 75
2019-04-22 19:00:00 4.6 13 Sur 32 Sudoeste 0.2 805.8 -0.7 83
2019-04-22 18:00:00 4.9 10 Sur 22 Sur 0 806.1 -1.2 85
2019-04-22 17:00:00 5.4 4 Nordeste 12 Noroeste 0 806.2 -1.2 81
2019-04-22 16:00:00 6.1 5 Noroeste 12 Norte 0 806.5 -1.6 80
2019-04-22 15:00:00 5.5 6 Noroeste 22 Norte 0 807.3 -1.1 84
2019-04-22 14:00:00 5 6 Norte 19 Norte 0 807.4 -1.2 89
2019-04-22 13:00:00 3.3 6 Noroeste 16 Oeste 0 808.1 -0.5 93
2019-04-22 12:00:00 3.8 5 Noroeste 15 Norte 0 808.4 -0.2 90
2019-04-22 11:00:00 3.1 11 Norte 18 Norte 0 808.6 -0.2 93
2019-04-22 10:00:00 2.4 5 Norte 9 Norte 0 808.6 -0.1 96
2019-04-22 09:00:00 2.2 4 Norte 8 Norte 0 808.6 -0.4 96
2019-04-22 08:00:00 1.7 2 Sudeste 6 Sur 0 808.8 -1 98
2019-04-22 07:00:00 1.4 0 Calma 14 Sudeste 0 808.7 -1.3 98
2019-04-22 06:00:00 1.4 7 Sur 26 Sur 0 809 -1.8 98
2019-04-22 05:00:00 1.5 17 Sur 34 Sur 0 809.8 -1.5 98
2019-04-22 04:00:00 1.7 22 Sur 48 Sur 0 810 -1.8 94
2019-04-22 03:00:00 1.6 21 Sur 60 Sur 0 810.8 -1.8 95
2019-04-22 02:00:00 1.9 27 Sur 49 Sur 0 811.3 -1.4 91
2019-04-22 01:00:00 2 27 Sudeste 55 Sudeste 0 811.8 -0.8 91
2019-04-22 00:00:00 1.4 19 Sur 52 Sur 0 812.6 -0.1 97
2019-04-21 23:00:00 1.4 21 Sur 73 Sur 0 812.7 -0.3 95
2019-04-21 22:00:00 1.5 30 Sur 67 Sur 0 812.6 -0.4 93
2019-04-21 21:00:00 1.2 12 Sudeste 42 Este 0 812.7 -0.7 96
2019-04-21 20:00:00 1.4 22 Este 54 Este 0 813 -0.8 91
2019-04-21 19:00:00 1.4 23 Este 48 Nordeste 0 813 -1.5 92
2019-04-21 18:00:00 1.3 13 Norte 37 Nordeste 0 813.4 -1.4 95
2019-04-21 17:00:00 2 12 Este 34 Nordeste 0 813.8 -1.2 89
2019-04-21 16:00:00 1.6 15 Norte 40 Norte 0 814.5 -1 92
2019-04-21 15:00:00 1.5 9 Norte 37 Nordeste 0 814.8 -0.9 93
2019-04-21 14:00:00 1.8 9 Nordeste 34 Nordeste 0 815 -1 92
2019-04-21 13:00:00 2 10 Sudeste 44 Norte 0 815.5 -0.4 93
2019-04-21 12:00:00 2.7 13 Nordeste 44 Nordeste 0 815.7 -0.5 86
2019-04-21 11:00:00 2.6 11 Nordeste 45 Este 0 816 -0.4 84
2019-04-21 10:00:00 1.4 13 Este 41 Este 0 815.9 -0.4 91
2019-04-21 09:00:00 1.6 18 Sudeste 46 Este 0 816.2 -0.3 86
2019-04-21 08:00:00 1.1 26 Sudeste 54 Este 0 816.4 -0.1 92
2019-04-21 07:00:00 0.8 23 Este 49 Este 0 816.3 -1.3 94
2019-04-21 06:00:00 1.2 28 Sudeste 63 Sudeste 0 816.5 -2 90
2019-04-21 05:00:00 1.4 37 Sudeste 67 Sur 0 816.5 -2.7 89
2019-04-21 04:00:00 2 33 Sudeste 48 Sudeste 0 817.6 -2.2 83
2019-04-21 03:00:00 3.3 30 Sudeste 63 Sur 0 818.5 -1.7 74
2019-04-21 02:00:00 2.9 33 Sudeste 54 Sur 0 819.2 -1.1 78
2019-04-21 01:00:00 3.4 25 Sudeste 50 Sur 0 819.8 -0.5 72
2019-04-21 00:00:00 4.3 23 Sur 71 Sur 0 820.2 0.1 64
2019-04-20 23:00:00 5 32 Sur 73 Sur 0 820.3 0 62
2019-04-20 22:00:00 5.5 31 Sur 66 Sur 0 820.3 -0.3 64
2019-04-20 21:00:00 6.3 31 Sudeste 66 Sur 0 820.1 -0.6 51
2019-04-20 20:00:00 7.2 23 Este 50 Este 0 820.3 -0.5 60
2019-04-20 19:00:00 9 12 Sudeste 34 Sudeste 0.2 820.6 -0.7 56
2019-04-20 18:00:00 10.7 13 Nordeste 47 Nordeste 0 820.7 -0.7 47
2019-04-20 17:00:00 10.5 17 Nordeste 51 Este 0 820.8 -0.5 49
2019-04-20 16:00:00 9.7 22 Sudeste 63 Sur 0 821.3 -0.1 48
2019-04-20 15:00:00 9.5 26 Sudeste 79 Sur 0 821.4 -0.1 47
2019-04-20 14:00:00 8.6 45 Sur 75 Sur 0 821.3 -0.5 52
2019-04-20 13:00:00 8.1 43 Sur 80 Sur 0 821.4 -0.7 49
2019-04-20 12:00:00 7.2 51 Sur 84 Sur 0 821.5 -0.3 55
2019-04-20 11:00:00 6.8 42 Sur 85 Sur 0 821.8 0.2 58
2019-04-20 10:00:00 6.9 35 Sur 84 Sur 0 822.1 0.7 55
2019-04-20 09:00:00 5.6 46 Sur 85 Sur 0 821.8 0.1 56
2019-04-20 08:00:00 5 45 Sur 84 Sur 0.2 821.6 -0.2 67
2019-04-20 07:00:00 5.6 30 Sur 79 Sur 0 821.4 -0.6 56
2019-04-20 06:00:00 6 26 Sur 76 Sur 0 821.7 -0.9 50
2019-04-20 05:00:00 5.5 27 Sur 79 Sur 0 821.8 -0.2 54
2019-04-20 04:00:00 4.6 47 Sur 105 Sur 0 822 -0.1 68
2019-04-20 03:00:00 4.6 40 Sudoeste 84 Sur 0 822.6 1 71
2019-04-20 02:00:00 5.7 21 Oeste 93 Sur 0 822 -0.1 58
2019-04-20 01:00:00 5.3 34 Sudoeste 103 Sudoeste 0 822.1 0.5 65
2019-04-20 00:00:00 5 33 Sudoeste 87 Sur 0 821.6 0.7 69
2019-04-19 23:00:00 4.8 24 Noroeste 71 Nordeste 0.2 822.1 2.2 72
2019-04-19 22:00:00 5 24 Noroeste 88 Este 0 821.6 1.7 73
2019-04-19 21:00:00 4.8 21 Noroeste 99 Sudoeste 0 820.9 1.9 77
2019-04-19 20:00:00 4.6 21 Nordeste 86 Este 0 819.9 0.4 87
2019-04-19 19:00:00 5 31 Nordeste 94 Nordeste 0 819.9 0.6 88
2019-04-19 18:00:00 4.3 31 Nordeste 90 Este 0 819 -1 92
2019-04-19 17:00:00 3.9 22 Este 71 Sur 0 819.5 -0.3 98
2019-04-19 16:00:00 3.9 20 Nordeste 62 Este 0 819.3 -0.4 96
2019-04-19 15:00:00 3.7 7 Oeste 20 Sur 0.2 820 0.7 94
2019-04-19 14:00:00 3.5 5 Sudoeste 32 Sur 0 819.8 1.1 90
2019-04-19 13:00:00 3.6 14 Sudoeste 34 Sur 0 819.7 1.6 88
2019-04-19 12:00:00 3.5 18 Sur 50 Sur 0 819.3 1.8 89
2019-04-19 11:00:00 2.5 17 Sudoeste 53 Sudoeste 0 818.7 1.7 90
2019-04-19 10:00:00 2.3 18 Oeste 70 Sur 0 818.1 1.7 95
2019-04-19 09:00:00 1.8 21 Sudoeste 62 Sur 0.2 817.5 1.6 96
2019-04-19 08:00:00 1.4 27 Sur 60 Sur 0 817 0.9 98
2019-04-19 07:00:00 1.2 24 Sur 61 Sur 0 816.4 0.6 99
2019-04-19 06:00:00 1.2 24 Sur 58 Sur 0 815.9 0.3 98
2019-04-19 05:00:00 1.3 22 Sur 49 Sur 0 816.1 0.2 98
2019-04-19 04:00:00 1.2 27 Sur 55 Sur 0.2 815.8 0.1 98
2019-04-19 03:00:00 1.4 26 Sur 48 Sur 0 815.6 0.4 98
2019-04-19 02:00:00 1.7 23 Sur 45 Sur 0 815.9 0.2 93
2019-04-19 01:00:00 1.4 25 Sur 45 Sur 0 815.7 0.2 95
2019-04-19 00:00:00 1.9 35 Sur 44 Sudeste 0.2 815.2 0 88
2019-04-18 23:00:00 1.6 22 Sudeste 35 Sudeste 0 815.7 0.5 88
2019-04-18 22:00:00 1.9 19 Sudeste 23 Sudeste 0 815.5 0.5 90
2019-04-18 21:00:00 2.6 13 Sudeste 18 Sudeste 0 815.2 0.1 90
2019-04-18 20:00:00 3.5 3 Sur 15 Norte 0 815.2 0.6 92
2019-04-18 19:00:00 4 5 Este 23 Sur 0.2 815 0 94
2019-04-18 18:00:00 4.5 17 Sur 37 Sur 0 815.1 0.3 87
2019-04-18 17:00:00 2.8 30 Sur 41 Sur 0 814.6 -1.1 89
2019-04-18 16:00:00 2.8 37 Sur 50 Sur 0 815 -1.1 89
2019-04-18 15:00:00 3.3 32 Sur 64 Sudeste 0 814.8 -1.9 87
2019-04-18 14:00:00 3.3 11 Oeste 48 Sudeste 0.2 815.7 -0.7 87
2019-04-18 13:00:00 2 8 Nordeste 16 Sur 0 816.1 -0.4 97
2019-04-18 12:00:00 1.4 13 Sudeste 22 Sudeste 0 816.7 0.3 90
2019-04-18 11:00:00 2.1 2 Este 12 Sudeste 0 816.4 0 95
2019-04-18 10:00:00 2.4 11 Sur 27 Sudeste 0 816.5 0.5 88
2019-04-18 09:00:00 1.8 18 Sur 32 Sudeste 0 816.4 0.8 90
2019-04-18 08:00:00 1.6 13 Sur 34 Sudoeste 0 816.4 0.6 90
2019-04-18 07:00:00 2.1 14 Noroeste 39 Oeste 0.2 816 0.6 92
2019-04-18 06:00:00 2.3 17 Noroeste 48 Sudoeste 0 815.6 -0.2 94
2019-04-18 05:00:00 2.5 22 Noroeste 64 Sur 0 815.8 -0.8 96
2019-04-18 04:00:00 5.4 31 Sur 91 Sudeste 0 815.4 -1.5 95
2019-04-18 03:00:00 5.5 26 Nordeste 69 Sudeste 0 815.8 -0.8 90
2019-04-18 02:00:00 6.1 26 Noroeste 80 Oeste 0 816.6 -0.1 87
2019-04-18 01:00:00 7 20 Este 97 Sudeste 0 816.9 -0.7 83
2019-04-18 00:00:00 7.4 20 Nordeste 58 Sudeste 0 816.6 0.6 82
2019-04-17 23:00:00 6.8 18 Norte 56 Sudoeste 0.2 816.7 1.5 91
2019-04-17 22:00:00 8.9 18 Norte 57 Sudeste 0 817.6 2.7 73
2019-04-17 21:00:00 10 16 Nordeste 57 Norte 0 816 1 63
2019-04-17 20:00:00 11.5 19 Este 74 Sudeste 0 815.2 -0.3 54
2019-04-17 19:00:00 12.2 26 Sur 75 Sur 0 814.9 -1.3 45
2019-04-17 18:00:00 11.7 28 Sur 65 Sur 0 815 -1.8 51
2019-04-17 17:00:00 12.4 23 Sur 66 Sur 0.2 815.5 -1.4 46
2019-04-17 16:00:00 14.5 21 Norte 78 Sudoeste 0 816.2 -1 30
2019-04-17 15:00:00 13.4 16 Sur 76 Oeste 0 816.8 0 36
2019-04-17 14:00:00 10 18 Oeste 88 Oeste 0 816.9 0.7 47
2019-04-17 13:00:00 9.5 27 Sur 99 Sudoeste 0 817.2 0.6 47
2019-04-17 12:00:00 8.9 33 Sur 89 Sudoeste 0 816.8 0 45
2019-04-17 11:00:00 9.5 42 Sudoeste 109 Sudoeste 0.2 816.2 -0.4 38
2019-04-17 10:00:00 7.2 18 Noroeste 104 Sudoeste 0 816.6 0.1 63
2019-04-17 09:00:00 7.4 40 Sur 97 Sudoeste 0 816.8 0.6 63
2019-04-17 08:00:00 7 28 Sur 86 Sudeste 0 816.6 0.1 66
2019-04-17 07:00:00 6.6 45 Sur 89 Sudoeste 0.2 816.5 -0.9 71
2019-04-17 06:00:00 6.3 46 Sur 91 Sudeste 0 816.2 -1.8 75
2019-04-17 05:00:00 6.7 45 Sur 87 Sudeste 0 816.5 -2.1 67
2019-04-17 04:00:00 6.1 35 Sur 99 Sudeste 0 817.4 -1.7 73
2019-04-17 03:00:00 6.7 25 Sur 111 Sudeste 0 818 -1.3 72
2019-04-17 02:00:00 7.4 28 Sur 82 Sudeste 0.2 818.6 -0.5 65
2019-04-17 01:00:00 8.2 38 Sudeste 83 Este 0 819.1 -0.1 48
2019-04-17 00:00:00 8.4 24 Sudoeste 80 Sudeste 0 819.3 0.3 46
2019-04-16 23:00:00 8.3 33 Sudeste 87 Sudeste 0 819.1 -0.1 49
2019-04-16 22:00:00 7.9 44 Sur 81 Sur 0.2 819.2 -0.2 52
2019-04-16 21:00:00 7.7 47 Sur 69 Sur 0 819 -0.6 54
2019-04-16 20:00:00 8.5 38 Sur 69 Sudeste 0 819.2 -0.8 52
2019-04-16 19:00:00 8.8 39 Sur 62 Sudeste 0 819.4 -0.8 49
2019-04-16 18:00:00 9.4 28 Sur 55 Sudeste 0 819.6 -1.3 45
2019-04-16 17:00:00 9.9 35 Sur 50 Sudeste 0.2 820 -0.9 46
2019-04-16 16:00:00 10.7 27 Sur 51 Sur 0 820.2 -0.9 52
2019-04-16 15:00:00 10.6 14 Sur 43 Sur 0 820.9 -0.4 53
2019-04-16 14:00:00 9.3 18 Sudeste 35 Sudeste 0.2 820.9 -0.2 59
2019-04-16 13:00:00 9.3 11 Sudeste 21 Sudeste 0 821.1 0.2 58
2019-04-16 12:00:00 10.2 5 Sudeste 14 Nordeste 0 821.3 0.4 52
2019-04-16 11:00:00 7.5 5 Nordeste 14 Sudeste 0 821.1 0.6 61
2019-04-16 10:00:00 5.6 4 Sudeste 9 Sudeste 0 820.9 0.5 50
2019-04-16 09:00:00 1.2 3 Sudoeste 11 Sudeste 0.2 820.9 0.4 67
2019-04-16 08:00:00 0.8 7 Sur 17 Sudoeste 0 820.5 0 69
2019-04-16 07:00:00 0.8 8 Sur 21 Sudoeste 0 820.4 0.1 90
2019-04-16 06:00:00 1.4 10 Sudoeste 17 Sudoeste 0 820.5 0.6 98
2019-04-16 05:00:00 1.6 6 Sudoeste 23 Noroeste 0 820.5 0.3 99
2019-04-16 04:00:00 2.2 6 Norte 31 Norte 0.2 820.3 -0.2 99
2019-04-16 03:00:00 2.2 11 Noroeste 31 Noroeste 0 819.9 -0.4 99
2019-04-16 02:00:00 2.6 9 Norte 31 Nordeste 0 820.2 0.2 98
2019-04-16 01:00:00 2.7 9 Noroeste 21 Noroeste 0 820.5 0.9 95
2019-04-16 00:00:00 2.9 5 Noroeste 30 Noroeste 0 820.3 1.3 89
2019-04-15 23:00:00 2.6 7 Sudoeste 31 Norte 0.2 820 1.4 81
2019-04-15 22:00:00 2.9 11 Noroeste 37 Norte 0 819.6 2.1 93
2019-04-15 21:00:00 3.4 10 Norte 36 Sudoeste 0 819 2.6 92
2019-04-15 20:00:00 4.5 17 Norte 47 Oeste 0 818.6 2.2 93
2019-04-15 19:00:00 8.6 17 Nordeste 57 Sudoeste 0.2 817.5 1.2 74
2019-04-15 18:00:00 11 27 Oeste 74 Oeste 0 816.4 -0.1 56
2019-04-15 17:00:00 11.5 23 Sudoeste 69 Sudoeste 0.2 816.4 -0.8 57
2019-04-15 16:00:00 9.7 23 Sudoeste 81 Sudoeste 0 816.3 -1.1 83
2019-04-15 15:00:00 9.7 29 Sudoeste 82 Sudoeste 0 816.5 -1.7 79
2019-04-15 14:00:00 9 22 Sudoeste 85 Sudoeste 0.2 817.2 -0.5 83
2019-04-15 13:00:00 9 34 Sudoeste 75 Sudeste 0 817.4 -0.3 82
2019-04-15 12:00:00 8.6 32 Sur 58 Sudeste 0 818.2 0.2 82
2019-04-15 11:00:00 8.6 37 Sur 63 Sudeste 0.2 817.7 -0.5 80
2019-04-15 10:00:00 7.9 40 Sur 67 Sudeste 0 817.7 -0.4 83
2019-04-15 09:00:00 7.7 43 Sur 67 Sur 0 818 -0.2 84
2019-04-15 08:00:00 7.7 44 Sur 66 Sur 0.2 818.2 -0.6 85
2019-04-15 07:00:00 8.2 38 Sur 63 Sudeste 0 818.1 -1.2 81
2019-04-15 06:00:00 8 40 Sur 66 Sudeste 0 818.2 -1.8 82
2019-04-15 05:00:00 8.3 36 Sur 67 Sudeste 0.2 818.8 -1.9 80
2019-04-15 04:00:00 8.1 40 Sur 64 Sudeste 0 819.3 -1.4 83
2019-04-15 03:00:00 8.7 25 Sur 51 Sudeste 0 820 -1 80
2019-04-15 02:00:00 8.4 29 Sur 52 Sudeste 0 820.7 -0.8 82
2019-04-15 01:00:00 8.9 33 Sur 54 Sur 0.2 820.7 -1 79
2019-04-15 00:00:00 9.3 37 Sur 53 Sur 0 821 -0.5 70
2019-04-14 23:00:00 8.2 8 Sur 25 Sudoeste 0 821.5 0 79
2019-04-14 22:00:00 7.6 4 Sudoeste 17 Sudoeste 0.2 821.7 0.4 79
2019-04-14 21:00:00 6.7 4 Sur 10 Sudoeste 0 821.5 0 86
2019-04-14 20:00:00 8 5 Sudoeste 14 Sur 0 821.5 0 79
2019-04-14 19:00:00 9.3 5 Sudoeste 13 Sur 0 821.3 -0.7 77
2019-04-14 18:00:00 9.8 6 Sur 14 Sudoeste 0.2 821.5 -0.6 79
2019-04-14 17:00:00 10 4 Sudeste 12 Sur 0 821.5 -0.2 76
2019-04-14 16:00:00 10.2 4 Oeste 15 Sur 0 822 0 82
2019-04-14 15:00:00 9.9 6 Oeste 17 Noroeste 0.2 822.1 0.2 82
2019-04-14 14:00:00 8.2 6 Sudoeste 21 Sur 0 821.7 -0.1 90
2019-04-14 13:00:00 6.3 6 Sudoeste 19 Oeste 0 822 0.7 98
2019-04-14 12:00:00 5.6 7 Sudeste 22 Oeste 0 821.9 0.5 98
2019-04-14 11:00:00 5.7 8 Noroeste 27 Noroeste 0.2 821.8 0.3 98
2019-04-14 10:00:00 5.4 8 Sudeste 24 Noroeste 0 821.3 0.2 98
2019-04-14 09:00:00 5.3 6 Noroeste 24 Oeste 0 821.4 0.2 98
2019-04-14 08:00:00 5.1 8 Este 28 Sudoeste 0 821.5 -0.1 98
2019-04-14 07:00:00 5 9 Noroeste 32 Noroeste 0 821.1 -0.8 98
2019-04-14 06:00:00 4.9 13 Norte 39 Noroeste 0.2 821.2 -1 97
2019-04-14 05:00:00 4.7 8 Norte 31 Oeste 0 821.6 -0.6 92
2019-04-14 04:00:00 4.7 10 Norte 31 Noroeste 0 821.9 -0.5 85
2019-04-14 03:00:00 5.6 10 Norte 36 Noroeste 0 822.2 -0.4 70
2019-04-14 02:00:00 6.5 8 Norte 25 Oeste 0 822.2 -0.6 45
2019-04-14 01:00:00 6.5 4 Este 19 Noroeste 0.2 822.4 -0.2 38
2019-04-14 00:00:00 5 10 Sudeste 15 Sudeste 0 822.6 0.3 45
2019-04-13 23:00:00 6.1 5 Nordeste 13 Sudeste 0 822.8 0.8 42
2019-04-13 22:00:00 5.6 8 Sudeste 13 Sur 0 822.6 0.8 43
2019-04-13 21:00:00 6.2 4 Sudeste 18 Noroeste 0 822.3 0.5 43
2019-04-13 20:00:00 8.1 6 Norte 30 Norte 0.2 822 0.2 30
2019-04-13 19:00:00 10 9 Norte 23 Norte 0 821.8 -0.2 22
2019-04-13 18:00:00 11.2 6 Noroeste 27 Nordeste 0 821.8 -0.3 19
2019-04-13 17:00:00 10.4 12 Noroeste 27 Noroeste 0 821.8 -0.3 18
2019-04-13 16:00:00 10.8 11 Norte 25 Norte 0.2 822 -0.3 26
2019-04-13 15:00:00 11.5 5 Sur 12 Sur 0 822.1 -0.3 29
2019-04-13 14:00:00 10.9 3 Oeste 13 Sur 0 822.1 -0.3 30
2019-04-13 13:00:00 8.4 9 Sur 16 Sur 0 822.3 0.3 32
2019-04-13 12:00:00 6.2 11 Sur 15 Sur 0.2 822.4 0.6 32
2019-04-13 11:00:00 5.4 9 Sur 15 Sur 0 822.4 0.9 21
2019-04-13 10:00:00 3.6 12 Sudeste 17 Sur 0 822 1 21
2019-04-13 09:00:00 -0.2 8 Sudeste 20 Sur 0 821.8 0.9 18
2019-04-13 08:00:00 -0.4 10 Sur 17 Sur 0 821.5 0.7 24
2019-04-13 07:00:00 0.2 10 Sudeste 18 Sudeste 0.2 821 0 19
2019-04-13 06:00:00 0 12 Sur 19 Sudeste 0 820.9 -0.3 15
2019-04-13 05:00:00 0 5 Sudoeste 17 Sur 0 820.8 -0.9 37
2019-04-13 04:00:00 -0.3 8 Sur 17 Sur 0 821 -0.7 60
2019-04-13 03:00:00 0.1 3 Sudoeste 9 Sudoeste 0 821.2 -0.5 64
2019-04-13 02:00:00 0.2 2 Sur 9 Noroeste 0.2 821.7 0 66
2019-04-13 01:00:00 0.6 3 Noroeste 10 Noroeste 0 821.7 0.3 62
2019-04-13 00:00:00 1.6 3 Oeste 10 Oeste 0 821.7 0.8 57
2019-04-12 23:00:00 1.8 5 Oeste 19 Norte 0 821.7 1.1 59
2019-04-12 22:00:00 2.8 7 Noroeste 21 Oeste 0 821.4 0.8 62
2019-04-12 21:00:00 3.2 9 Oeste 26 Noroeste 0 820.9 0.4 60
2019-04-12 20:00:00 4.6 8 Oeste 24 Noroeste 0.2 820.6 0.2 55
2019-04-12 19:00:00 5.8 9 Norte 26 Nordeste 0 820.6 0 51
2019-04-12 18:00:00 6.5 9 Noroeste 32 Norte 0 820.5 -0.7 53
2019-04-12 17:00:00 5.5 12 Noroeste 28 Norte 0 820.4 -0.6 61
2019-04-12 16:00:00 4.4 13 Norte 27 Norte 0.2 820.6 -0.2 64
2019-04-12 15:00:00 5.3 6 Noroeste 24 Norte 0 821.2 0.5 63
2019-04-12 14:00:00 4.5 8 Oeste 21 Sudoeste 0 821 0.2 65
2019-04-12 13:00:00 5.2 5 Sur 14 Oeste 0 820.8 0.5 69
2019-04-12 12:00:00 4.1 5 Sudoeste 13 Sudoeste 0.2 820.7 0.7 70
2019-04-12 11:00:00 2.8 5 Oeste 16 Sur 0 820.8 0.7 76
2019-04-12 10:00:00 0.4 6 Sur 14 Sudoeste 0 820.3 0.4 84
2019-04-12 09:00:00 -1.9 8 Sur 19 Sudoeste 0 820 0.1 87
2019-04-12 08:00:00 -1.2 3 Sudeste 14 Oeste 0.2 820.1 0.2 86
2019-04-12 07:00:00 -1.8 0 Calma 13 Este 0 819.9 -0.1 91
2019-04-12 06:00:00 -1.9 3 Sur 15 Norte 0 819.9 -0.4 91
2019-04-12 05:00:00 -1.3 5 Nordeste 19 Nordeste 0 819.9 -0.8 90
2019-04-12 04:00:00 -0.8 5 Nordeste 15 Nordeste 0 820 -0.9 89
2019-04-12 03:00:00 -0.7 5 Norte 21 Norte 0 820.3 -0.7 88
2019-04-12 02:00:00 -0.6 11 Nordeste 27 Nordeste 0.2 820.7 -0.4 88
2019-04-12 01:00:00 -0.8 14 Norte 27 Norte 0 820.9 0 91
2019-04-12 00:00:00 -0.8 12 Nordeste 22 Nordeste 0 821 0.5 92
2019-04-11 23:00:00 -0.6 13 Nordeste 29 Norte 0 821.1 0.9 98
2019-04-11 22:00:00 0 17 Norte 37 Norte 0 820.9 0.7 98
2019-04-11 21:00:00 0.2 24 Norte 39 Norte 0.2 820.5 0.4 93
2019-04-11 20:00:00 0.5 25 Norte 39 Norte 0 820.2 0.1 88
2019-04-11 19:00:00 1.5 17 Norte 44 Norte 0 820.2 0.1 82
2019-04-11 18:00:00 1.1 25 Norte 53 Norte 0 820.1 -0.1 82
2019-04-11 17:00:00 0.9 26 Norte 48 Norte 0.2 820.1 -0.1 85
2019-04-11 16:00:00 0.9 21 Norte 41 Norte 0 820.1 -0.3 89
2019-04-11 15:00:00 0.3 27 Norte 48 Norte 0 820.2 0.1 91
2019-04-11 14:00:00 0 29 Norte 44 Norte 0 820.2 0.2 91
2019-04-11 13:00:00 -0.6 28 Norte 46 Norte 0 820.4 0.7 91
2019-04-11 12:00:00 -1.4 25 Norte 42 Norte 0.2 820.1 0.6 97
2019-04-11 11:00:00 -1.8 18 Norte 32 Norte 0 820 0.8 98
2019-04-11 10:00:00 -2 11 Norte 25 Nordeste 0 819.7 0.8 98
2019-04-11 09:00:00 -2.5 12 Norte 26 Norte 0 819.5 0.7 99
2019-04-11 08:00:00 -2.8 13 Norte 26 Norte 0.2 819.2 0.5 99
2019-04-11 07:00:00 -2.5 11 Norte 22 Nordeste 0 818.9 0.2 99
2019-04-11 06:00:00 -2.4 10 Norte 20 Nordeste 0 818.8 0.1 99
2019-04-11 05:00:00 -2.3 8 Norte 19 Norte 0 818.7 -0.3 100
2019-04-11 04:00:00 -2.2 10 Norte 24 Norte 0 818.7 -0.2 100
2019-04-11 03:00:00 -2 13 Norte 24 Nordeste 0.2 818.7 -0.3 100
2019-04-11 02:00:00 -1.9 13 Norte 26 Norte 0 819 0.2 100
2019-04-11 01:00:00 -1.6 12 Norte 24 Nordeste 0 818.9 0.5 100
2019-04-11 00:00:00 -1.4 11 Norte 26 Nordeste 0 819 1.5 99
2019-04-10 23:00:00 -0.6 11 Norte 30 Norte 0.2 818.8 1.9 99
2019-04-10 22:00:00 -0.2 21 Norte 37 Norte 0 818.4 1.9 99
2019-04-10 21:00:00 0.1 17 Norte 34 Norte 0 817.5 1.3 98
2019-04-10 20:00:00 0.1 17 Norte 29 Norte 0 816.9 0.9 98
2019-04-10 19:00:00 0.6 6 Norte 29 Norte 0.2 816.5 0.5 99
2019-04-10 18:00:00 0.4 9 Nordeste 20 Norte 0 816.2 0.3 99
2019-04-10 17:00:00 -0.2 7 Norte 30 Nordeste 0 816 0.3 100
2019-04-10 16:00:00 -0.3 14 Nordeste 35 Norte 0 816 0.3 100
2019-04-10 15:00:00 -0.4 11 Noroeste 32 Oeste 0.2 815.9 0.3 99
2019-04-10 14:00:00 -0.4 9 Nordeste 51 Nordeste 0 815.7 0.2 99
2019-04-10 13:00:00 -1 10 Norte 37 Norte 0 815.7 0.6 99
2019-04-10 12:00:00 -1.4 8 Norte 32 Norte 0.2 815.6 0.8 99
2019-04-10 11:00:00 -1.7 10 Norte 39 Nordeste 0 815.5 0.9 99
2019-04-10 10:00:00 -1.9 13 Noroeste 48 Noroeste 0 815.1 0.9 99
2019-04-10 09:00:00 -2 22 Noroeste 49 Oeste 0 814.8 0.5 99
2019-04-10 08:00:00 -2.2 17 Noroeste 41 Oeste 0.2 814.6 0.3 99
2019-04-10 07:00:00 -1.9 9 Noroeste 40 Oeste 0 814.2 -0.1 99
2019-04-10 06:00:00 -1.9 18 Noroeste 52 Noroeste 0 814.3 -0.2 99
2019-04-10 05:00:00 -1.5 21 Noroeste 49 Noroeste 0 814.3 -0.3 100
2019-04-10 04:00:00 -1.4 21 Noroeste 58 Oeste 0.2 814.3 -0.5 100
2019-04-10 03:00:00 -1 22 Norte 62 Noroeste 0 814.5 -0.3 100
2019-04-10 02:00:00 -1 17 Noroeste 56 Noroeste 0 814.6 -0.3 100
2019-04-10 01:00:00 -0.8 28 Noroeste 70 Noroeste 0.2 814.8 0.1 100
2019-04-10 00:00:00 -0.6 18 Norte 48 Nordeste 0 814.8 0.4 100
2019-04-09 23:00:00 -0.8 17 Norte 51 Noroeste 0 814.9 0.9 99
2019-04-09 22:00:00 -0.4 15 Este 46 Norte 0.2 814.7 1.1 99
2019-04-09 21:00:00 -0.5 14 Nordeste 43 Norte 0 814.4 0.9 99
2019-04-09 20:00:00 -0.5 17 Norte 54 Noroeste 0 814 0.3 97
2019-04-09 19:00:00 -0.3 11 Norte 44 Oeste 0 813.6 0.3 96
2019-04-09 18:00:00 0 17 Noroeste 60 Noroeste 0.2 813.5 0 97
2019-04-09 17:00:00 -0.7 16 Norte 66 Norte 0 813.7 0.2 99
2019-04-09 16:00:00 -1 14 Sudeste 53 Norte 0.2 813.3 -0.4 99
2019-04-09 15:00:00 -0.7 14 Noroeste 51 Noroeste 0 813.5 -0.5 97
2019-04-09 14:00:00 -0.2 12 Sudoeste 33 Noroeste 0 813.5 -0.8 95
2019-04-09 13:00:00 1.3 14 Sur 44 Sudoeste 0.2 813.7 -0.5 81
2019-04-09 12:00:00 -0.4 9 Oeste 46 Noroeste 0 814 -0.3 92
2019-04-09 11:00:00 -0.2 14 Este 35 Norte 0 814.3 0.2 88
2019-04-09 10:00:00 -0.5 7 Este 32 Sudoeste 0.2 814.2 0 89
2019-04-09 09:00:00 -1.1 6 Nordeste 37 Sur 0 814.3 0.1 91
2019-04-09 08:00:00 -1.9 16 Sur 39 Sur 0 814.1 -0.4 92
2019-04-09 07:00:00 -1.7 14 Sudoeste 42 Sudoeste 0.2 814.2 -0.4 99
2019-04-09 06:00:00 -1.7 8 Sur 36 Noroeste 0 814.2 -0.6 99
2019-04-09 05:00:00 -1.4 12 Este 49 Noroeste 0 814.5 -0.5 100
2019-04-09 04:00:00 -1.5 10 Norte 51 Noroeste 0.2 814.6 -0.5 100
2019-04-09 03:00:00 -0.9 14 Norte 54 Noroeste 0 814.8 -0.2 99
2019-04-09 02:00:00 -0.6 14 Nordeste 33 Noroeste 0.2 815 -0.2 99
2019-04-09 01:00:00 -0.4 7 Este 39 Nordeste 0 815.1 -0.2 99
2019-04-09 00:00:00 -0.4 10 Nordeste 33 Noroeste 0 815 0.4 98
2019-04-08 23:00:00 -0.9 9 Sudeste 41 Norte 0.2 815.2 0.7 98
2019-04-08 22:00:00 0.4 16 Norte 47 Norte 0 815.3 0.6 87
2019-04-08 21:00:00 1.7 9 Nordeste 26 Nordeste 0.2 814.6 -0.3 86
2019-04-08 20:00:00 2 6 Noroeste 21 Norte 0 814.5 -0.5 89
2019-04-08 19:00:00 2.5 7 Norte 26 Oeste 0.2 814.7 -0.6 91
2019-04-08 18:00:00 2.7 4 Oeste 28 Noroeste 0 814.9 -0.6 93
2019-04-08 17:00:00 3.9 8 Noroeste 23 Noroeste 0.2 815 -0.7 84
2019-04-08 16:00:00 2.9 9 Sudeste 34 Norte 0.2 815.3 -0.2 87
2019-04-08 15:00:00 4.2 8 Sur 31 Sur 0 815.5 0.1 87
2019-04-08 14:00:00 1.3 11 Sur 30 Sudoeste 0.2 815.7 0.6 97
2019-04-08 13:00:00 1.2 10 Sur 31 Oeste 0 815.5 0.7 98
2019-04-08 12:00:00 1 6 Oeste 27 Noroeste 0.2 815.4 0.6 99
2019-04-08 11:00:00 0.7 10 Norte 33 Norte 0 815.1 0.8 99
2019-04-08 10:00:00 1.4 8 Sur 41 Norte 0.2 814.8 0.4 99
2019-04-08 09:00:00 1.4 18 Noroeste 49 Sur 0 814.8 0.7 98
2019-04-08 08:00:00 1.6 12 Norte 45 Sudoeste 0.2 814.3 0.2 98
2019-04-08 07:00:00 1.1 15 Sudeste 36 Sur 0 814.4 0.2 97
2019-04-08 06:00:00 0.9 9 Nordeste 36 Este 0.2 814.1 -0.4 97
2019-04-08 05:00:00 1.7 15 Sudeste 46 Noroeste 0 814.1 -0.4 94
2019-04-08 04:00:00 1.7 13 Noroeste 51 Oeste 0.2 814.2 -0.5 98
2019-04-08 03:00:00 1.7 16 Sudeste 53 Sur 0 814.5 -0.1 98
2019-04-08 02:00:00 1.9 17 Sudeste 62 Sur 0.2 814.5 -0.4 99
2019-04-08 01:00:00 1.9 20 Norte 64 Noroeste 0 814.7 0.2 99
2019-04-08 00:00:00 1.9 15 Nordeste 60 Norte 0.2 814.6 0.2 98
2019-04-07 23:00:00 1 17 Norte 64 Sur 0 814.9 0.4 97
2019-04-07 22:00:00 1 32 Sur 70 Sur 0 814.5 0.3 95
2019-04-07 21:00:00 -0.7 31 Sur 43 Sur 0 814.4 0.3 95
2019-04-07 20:00:00 -1 16 Sur 30 Sur 0 814.5 0.5 96
2019-04-07 19:00:00 -0.6 8 Sudoeste 35 Sudoeste 0 814.2 0.6 96
2019-04-07 18:00:00 -0.3 13 Sudoeste 31 Sur 0 814.1 0.4 92
2019-04-07 17:00:00 0.2 14 Sudoeste 33 Sur 0 814 0.6 93
2019-04-07 16:00:00 -0.6 18 Sudoeste 38 Sur 0 813.6 0.7 98
2019-04-07 15:00:00 -1.1 18 Sur 37 Sudoeste 0 813.7 1.3 99
2019-04-07 14:00:00 -0.9 10 Sudoeste 35 Noroeste 0 813.4 1.5 99
2019-04-07 13:00:00 -2.3 9 Norte 45 Oeste 0 812.9 1.8 99
2019-04-07 12:00:00 -2.8 10 Noroeste 38 Noroeste 0 812.4 2.2 98
2019-04-07 11:00:00 -3.6 14 Noroeste 40 Noroeste 0 811.9 2.4 98
2019-04-07 10:00:00 -3.7 18 Noroeste 56 Noroeste 0 811.1 2.3 98
2019-04-07 09:00:00 -3.9 22 Noroeste 57 Norte 0 810.2 2.1 98
2019-04-07 08:00:00 -3.9 10 Nordeste 46 Noroeste 0 809.5 1.7 98
2019-04-07 07:00:00 -3.7 17 Noroeste 60 Noroeste 0 808.8 1.4 98
2019-04-07 06:00:00 -3.9 17 Norte 48 Norte 0 808.1 0.8 98
2019-04-07 05:00:00 -3.6 17 Noroeste 48 Norte 0 807.8 0.8 98
2019-04-07 04:00:00 -3.3 15 Norte 41 Noroeste 0 807.4 0.5 98
2019-04-07 03:00:00 -3.2 18 Norte 68 Norte 0 807.3 0.2 98
2019-04-07 02:00:00 -3.1 17 Nordeste 56 Oeste 0 807 0.2 98
2019-04-07 01:00:00 -3.1 18 Norte 54 Norte 0 806.9 0.7 98
2019-04-07 00:00:00 -2.9 17 Noroeste 63 Nordeste 0 807.1 1.5 98
2019-04-06 23:00:00 -2.8 17 Este 75 Sur 0 806.8 1.4 98
2019-04-06 22:00:00 -2.6 17 Sudeste 67 Norte 0 806.2 2.3 99
2019-04-06 21:00:00 -2.4 18 Norte 60 Norte 0 805.6 1.2 99
2019-04-06 20:00:00 -2.2 17 Norte 64 Oeste 0 805.4 1.4 99
2019-04-06 19:00:00 -2.3 25 Sur 77 Noroeste 0 803.9 -0.1 99
2019-04-06 18:00:00 -2.3 24 Noroeste 74 Sudoeste 0 804.4 0.4 98
2019-04-06 17:00:00 -1.9 21 Noroeste 66 Oeste 0 804 -0.2 97
2019-04-06 16:00:00 -1.7 23 Noroeste 67 Noroeste 0 804 -0.4 96
2019-04-06 15:00:00 -1.7 19 Sudoeste 69 Noroeste 0 804 -0.5 96
2019-04-06 14:00:00 -1.7 21 Sudoeste 50 Oeste 0 804.2 0.1 95
2019-04-06 13:00:00 -2.5 18 Sudeste 72 Sur 0 804.4 0.3 95
2019-04-06 12:00:00 -2.7 23 Sur 66 Sur 0 804.5 0.5 97
2019-04-06 11:00:00 -3 12 Sudeste 45 Norte 0 804.1 0.6 98
2019-04-06 10:00:00 -3.5 15 Este 53 Sur 0 804.1 0.8 98
2019-04-06 09:00:00 -3.6 16 Noroeste 51 Norte 0 804 0.9 98
2019-04-06 08:00:00 -4.5 16 Nordeste 53 Noroeste 0 803.5 0.1 97
2019-04-06 07:00:00 -4.8 14 Norte 51 Noroeste 0 803.3 -0.2 97
2019-04-06 06:00:00 -4.4 9 Este 41 Norte 0 803.1 -0.4 97
2019-04-06 05:00:00 -4.1 17 Noroeste 42 Noroeste 0 803.4 -0.2 98
2019-04-06 04:00:00 -4.2 18 Noroeste 54 Noroeste 0 803.5 -0.3 97
2019-04-06 03:00:00 -3.9 15 Noroeste 41 Noroeste 0 803.5 -0.3 98
2019-04-06 02:00:00 -3.5 15 Noroeste 51 Noroeste 0 803.6 0 98
2019-04-06 01:00:00 -3.7 12 Sudeste 40 Noroeste 0 803.8 0.6 98
2019-04-06 00:00:00 -3.3 17 Noroeste 54 Norte 0.2 803.8 1.3 98
2019-04-05 23:00:00 -3.3 15 Sudeste 36 Noroeste 0.4 803.6 1.3 98
2019-04-05 22:00:00 -3.4 9 Sudeste 33 Sudoeste 0.6 803.2 1.5 98
2019-04-05 21:00:00 -4.1 7 Sudoeste 25 Oeste 0.4 802.5 1.1 97
2019-04-05 20:00:00 -3.6 10 Noroeste 44 Norte 0.6 802.3 0.8 98
2019-04-05 19:00:00 -2.9 8 Norte 25 Noroeste 0.4 801.7 0.4 98
2019-04-05 18:00:00 -2.1 8 Sudoeste 24 Sur 0.6 801.4 -0.7 97
2019-04-05 17:00:00 -1.5 5 Sudoeste 29 Sur 0.4 801.5 -0.1 98
2019-04-05 16:00:00 -1.2 17 Sudoeste 48 Sur 0.6 801.3 -0.2 98
2019-04-05 15:00:00 -3 8 Oeste 47 Noroeste 0.4 802.1 0.2 98
2019-04-05 14:00:00 -0.8 20 Oeste 60 Sudeste 0.4 801.6 -0.5 98
2019-04-05 13:00:00 -0.3 19 Oeste 47 Sudoeste 0.8 801.5 -0.2 98
2019-04-05 12:00:00 -1 16 Oeste 52 Sur 1.8 801.9 0.1 98
2019-04-05 11:00:00 -1.2 13 Sudoeste 49 Sudoeste 0.4 802.1 0.6 98
2019-04-05 10:00:00 -2 23 Sudoeste 51 Sur 0 801.7 0.3 99
2019-04-05 09:00:00 -2.3 25 Sur 59 Sur 0 801.8 0.3 98
2019-04-05 08:00:00 -2.4 35 Sur 55 Sur 0 801.5 -0.1 98
2019-04-05 07:00:00 -2.3 32 Sur 48 Sur 0.6 801.4 -0.2 97
2019-04-05 06:00:00 -1.9 31 Sur 50 Sudoeste 0.2 801.5 -1.1 96
2019-04-05 05:00:00 -2.1 35 Sur 50 Sur 0.4 801.6 -1.2 95
2019-04-05 04:00:00 -2.2 37 Sur 55 Sur 0.6 801.6 -2 94
2019-04-05 03:00:00 -2.4 27 Sudoeste 70 Sudoeste 0.6 802.6 -0.9 94
2019-04-05 02:00:00 -1.5 29 Sudoeste 60 Sudoeste 0 802.8 -1.8 84
2019-04-05 01:00:00 -0.2 17 Sudoeste 42 Sudoeste 0 803.6 -1.4 67
2019-04-05 00:00:00 0.5 13 Oeste 38 Oeste 0 803.5 -1.2 55
2019-04-04 23:00:00 -0.9 4 Sur 17 Oeste 0 804.6 -0.4 66
2019-04-04 22:00:00 0.2 7 Noroeste 24 Oeste 0 805 0 52
2019-04-04 21:00:00 0.7 18 Sur 42 Sur 0 804.7 -0.5 47
2019-04-04 20:00:00 1.1 23 Sur 47 Sur 0 805 -0.3 47
2019-04-04 19:00:00 1.9 23 Sur 44 Sudoeste 0 805 -0.7 45
2019-04-04 18:00:00 3.1 13 Sudoeste 53 Sur 0 805.2 -1.1 38
2019-04-04 17:00:00 3.6 18 Sur 39 Sur 0 805.3 -1.4 39
2019-04-04 16:00:00 3.6 13 Norte 30 Nordeste 0 805.7 -1.3 43
2019-04-04 15:00:00 2.6 7 Oeste 25 Norte 0 806.3 -0.9 48
2019-04-04 14:00:00 0.6 12 Oeste 27 Oeste 0 806.7 -0.4 51
2019-04-04 13:00:00 0.1 8 Noroeste 20 Oeste 0 807 0.3 53
2019-04-04 12:00:00 -1.6 7 Oeste 21 Oeste 0 807.2 0.9 67
2019-04-04 11:00:00 -3.1 6 Oeste 17 Noroeste 0 807.1 1.2 71
2019-04-04 10:00:00 -4.8 12 Sur 26 Sur 0 806.7 1.1 81
2019-04-04 09:00:00 -7.1 7 Sur 17 Sudoeste 0 806.3 0.5 94
2019-04-04 08:00:00 -7.3 7 Oeste 24 Noroeste 0 805.9 0 97
2019-04-04 07:00:00 -7.3 6 Oeste 22 Noroeste 0 805.6 -0.4 94
2019-04-04 06:00:00 -7.1 5 Nordeste 19 Oeste 0 805.8 -0.8 98
2019-04-04 05:00:00 -6.9 4 Sudeste 21 Noroeste 0 805.9 -1.3 96
2019-04-04 04:00:00 -6.4 5 Noroeste 28 Noroeste 0 806 -1.7 91
2019-04-04 03:00:00 -6.4 6 Noroeste 26 Noroeste 0 806.6 -1.3 87
2019-04-04 02:00:00 -5.6 8 Norte 27 Norte 0 807.2 -0.8 85
2019-04-04 01:00:00 -5.1 7 Norte 25 Norte 0 807.7 -0.3 85
2019-04-04 00:00:00 -4.9 10 Norte 35 Nordeste 0 807.9 0.3 85
2019-04-03 23:00:00 -4.3 17 Norte 27 Norte 0 808 0.4 83
2019-04-03 22:00:00 -2.8 10 Nordeste 28 Nordeste 0 808 0.3 75
2019-04-03 21:00:00 -2.1 11 Nordeste 33 Nordeste 0 807.6 -0.1 78
2019-04-03 20:00:00 -0.9 20 Nordeste 57 Nordeste 0 807.6 -0.4 72
2019-04-03 19:00:00 0 14 Nordeste 47 Nordeste 0 807.7 -0.6 58
2019-04-03 18:00:00 1 13 Norte 43 Nordeste 0 807.7 -1.2 52
2019-04-03 17:00:00 1.5 10 Norte 38 Nordeste 0 808 -1.4 51
2019-04-03 16:00:00 0.3 12 Nordeste 51 Nordeste 0 808.3 -1.5 70
2019-04-03 15:00:00 -0.5 14 Norte 42 Noroeste 0 808.9 -1.3 79
2019-04-03 14:00:00 -1.8 15 Norte 44 Noroeste 0 809.4 -1.1 98
2019-04-03 13:00:00 -2.4 9 Noroeste 40 Noroeste 0 809.8 -0.8 99
2019-04-03 12:00:00 -2.2 10 Norte 39 Noroeste 0 810.2 -0.9 99
2019-04-03 11:00:00 -1.8 14 Noroeste 36 Noroeste 0 810.5 -0.8 98
2019-04-03 10:00:00 -0.7 9 Norte 34 Noroeste 0 810.6 -1 96
2019-04-03 09:00:00 -1.1 10 Nordeste 38 Oeste 0 811.1 -1.1 97
2019-04-03 08:00:00 0 11 Noroeste 37 Sudoeste 0 811.3 -1.7 94
2019-04-03 07:00:00 0.4 13 Sudoeste 30 Sur 0 811.6 -2.2 94
2019-04-03 06:00:00 0.7 10 Sur 27 Sudoeste 0 812.2 -2.3 89
2019-04-03 05:00:00 1.1 9 Sur 31 Sudoeste 0 813 -2.2 84
2019-04-03 04:00:00 1.2 9 Noroeste 29 Noroeste 0 813.8 -1.9 80
2019-04-03 03:00:00 1.6 8 Nordeste 27 Noroeste 0 814.5 -1.5 79
2019-04-03 02:00:00 2 6 Nordeste 28 Noroeste 0 815.2 -1.2 76
2019-04-03 01:00:00 2.5 10 Nordeste 50 Oeste 0 815.7 -0.9 68
2019-04-03 00:00:00 4 14 Este 56 Noroeste 0 816 -0.4 55
2019-04-02 23:00:00 4.5 12 Sudoeste 42 Noroeste 0 816.4 -0.1 56
2019-04-02 22:00:00 5 6 Nordeste 20 Noroeste 0 816.6 0.3 62
2019-04-02 21:00:00 5.4 7 Oeste 28 Noroeste 0 816.4 -0.1 65
2019-04-02 20:00:00 5.8 8 Sudeste 24 Nordeste 0 816.5 -0.4 69
2019-04-02 19:00:00 6.9 10 Sudeste 29 Nordeste 0 816.3 -1 69
2019-04-02 18:00:00 5.4 7 Sudeste 36 Nordeste 1.8 816.5 -1.2 74
2019-04-02 17:00:00 8.3 9 Sudoeste 32 Oeste 0 816.9 -1.3 56
2019-04-02 16:00:00 7.7 7 Sudeste 31 Oeste 0 817.3 -1.3 60
2019-04-02 15:00:00 6.8 10 Sudoeste 30 Noroeste 0 817.7 -1.2 64
2019-04-02 14:00:00 6 8 Nordeste 25 Noroeste 0 818.2 -0.5 72
2019-04-02 13:00:00 6.3 7 Nordeste 21 Norte 0 818.6 0.3 72
2019-04-02 12:00:00 6.7 11 Oeste 24 Noroeste 0 818.9 0.7 67
2019-04-02 11:00:00 5.9 8 Sudoeste 19 Noroeste 0 818.7 0.8 71
2019-04-02 10:00:00 5.6 5 Sudoeste 19 Oeste 0 818.3 0.5 60
2019-04-02 09:00:00 2.7 14 Sudoeste 19 Sudoeste 0 818.2 0.4 78
2019-04-02 08:00:00 2.7 8 Sudoeste 20 Sudoeste 0 817.9 -0.1 76
2019-04-02 07:00:00 2.2 12 Oeste 15 Sudoeste 0 817.8 -0.3 81
2019-04-02 06:00:00 2.6 9 Sudoeste 19 Sudoeste 0 817.8 -0.5 81
2019-04-02 05:00:00 2.9 6 Sur 22 Sudeste 0 818 -0.4 82
2019-04-02 04:00:00 3.6 13 Sur 27 Sur 0 818.1 -0.6 80
2019-04-02 03:00:00 3.2 9 Sudeste 19 Sudeste 0 818.3 -0.3 82
2019-04-02 02:00:00 2.9 6 Sur 14 Sur 0 818.4 -0.1 77
2019-04-02 01:00:00 3.8 6 Sur 14 Sur 0 818.7 0.5 78
2019-04-02 00:00:00 3.9 10 Sur 14 Sur 0 818.6 1 79
2019-04-01 23:00:00 4.4 4 Sur 9 Sur 0 818.5 1.4 77
2019-04-01 22:00:00 4.6 5 Norte 12 Norte 0 818.2 1.4 73
2019-04-01 21:00:00 4.3 5 Sudoeste 10 Sur 0 817.6 0.9 73
2019-04-01 20:00:00 5.7 3 Norte 14 Oeste 0 817.1 0.5 70
2019-04-01 19:00:00 7.5 4 Sudoeste 15 Oeste 0 816.8 0.1 63
2019-04-01 18:00:00 6.3 7 Noroeste 19 Sur 0 816.7 -0.1 67
2019-04-01 17:00:00 4.6 20 Sur 26 Sur 0.2 816.6 -0.5 77
2019-04-01 16:00:00 6.2 15 Sur 23 Sudoeste 0 816.7 -0.5 74
2019-04-01 15:00:00 5.8 12 Sur 21 Sudoeste 0 816.8 -0.4 76
2019-04-01 14:00:00 4.8 14 Sur 23 Sudeste 0 817.1 0.4 75
2019-04-01 13:00:00 5 8 Noroeste 18 Oeste 0 817.2 1 79
2019-04-01 12:00:00 4.5 8 Sudoeste 17 Sudoeste 0 817.2 1.3 81
2019-04-01 11:00:00 3.2 3 Norte 14 Norte 0 816.7 1 93
2019-04-01 10:00:00 3.2 4 Nordeste 21 Sudoeste 0 816.2 0.9 91
2019-04-01 09:00:00 2.6 9 Sur 22 Sur 0 815.9 0.9 88
2019-04-01 08:00:00 1.7 13 Sur 27 Sur 0 815.7 0.7 93
2019-04-01 07:00:00 1.2 18 Sur 29 Sudeste 0 815.3 0.2 97
2019-04-01 06:00:00 1.8 18 Sur 32 Sur 0 815 -0.2 91
2019-04-01 05:00:00 1.7 20 Sur 34 Sur 0 815 -0.4 93
2019-04-01 04:00:00 1.6 24 Sur 38 Sudeste 0 815.1 -0.2 93
2019-04-01 03:00:00 1.7 28 Sur 45 Sur 0 815.2 -0.3 92
2019-04-01 02:00:00 1.3 31 Sur 46 Sudeste 0 815.4 -0.4 95
2019-04-01 01:00:00 0.9 36 Sur 51 Sur 0 815.3 -0.2 98
2019-04-01 00:00:00 1 32 Sur 41 Sur 0 815.5 0.3 98
2019-03-31 23:00:00 0.8 29 Sudeste 43 Sudeste 0 815.8 0.6 98
2019-03-31 22:00:00 1 27 Sudeste 41 Sudeste 0 815.5 0.1 97
2019-03-31 21:00:00 1.6 30 Sudeste 49 Sudeste 0.6 815.2 -0.1 93
2019-03-31 20:00:00 2 27 Sudeste 43 Sudeste 0.2 815.2 -0.2 94
2019-03-31 19:00:00 3.2 6 Sur 35 Sur 0.6 815.4 -0.4 90
2019-03-31 18:00:00 3.7 17 Sur 38 Sur 0.4 815.3 -0.9 86
2019-03-31 17:00:00 3.4 18 Sur 40 Sur 0.4 815.4 -1.2 92
2019-03-31 16:00:00 4.5 10 Sudoeste 41 Sur 0.2 815.8 -1.1 86
2019-03-31 15:00:00 4.2 23 Sur 42 Sur 0.2 816.2 -0.9 80
2019-03-31 14:00:00 4.6 27 Sur 40 Sur 0 816.6 -0.5 80
2019-03-31 13:00:00 6.6 20 Sur 42 Sur 0 816.9 0 65
2019-03-31 12:00:00 6.4 14 Sur 37 Sur 0 817.1 0.2 64
2019-03-31 11:00:00 4.5 23 Sur 35 Sur 0 817.1 0.3 73
2019-03-31 10:00:00 5.3 15 Sudeste 36 Sur 0 816.9 0.1 67
2019-03-31 09:00:00 3.2 31 Sur 43 Sur 0 816.9 -0.3 79
2019-03-31 08:00:00 3.5 23 Sudeste 35 Sudeste 0 816.8 -1 74
2019-03-31 07:00:00 4.2 21 Sudeste 31 Sudeste 0 816.8 -1.6 58
2019-03-31 06:00:00 3.4 18 Sudeste 28 Sur 0 817.2 -1.8 58
2019-03-31 05:00:00 4.3 23 Sur 30 Sur 0 817.8 -1.5 51
2019-03-31 03:00:00 3.6 25 Sur 49 Sur 0 819 -1 61
2019-03-31 01:00:00 4.1 30 Sur 42 Sur 0 819.3 -1 52
2019-03-31 00:00:00 4.2 27 Sur 39 Sudeste 0 819.5 -0.8 49
2019-03-30 23:00:00 5.1 15 Sur 45 Sur 0 820 0.1 41
2019-03-30 22:00:00 5.6 14 Sudoeste 39 Sudoeste 0 820.3 0.4 41
2019-03-30 21:00:00 5.5 21 Sur 40 Sur 0 820.3 0.7 40
2019-03-30 20:00:00 5.5 11 Sur 32 Sudeste 0 819.9 0.2 40
2019-03-30 19:00:00 6.2 5 Noroeste 22 Oeste 0 819.9 -0.1 39
2019-03-30 18:00:00 7 5 Sur 22 Sur 0 819.6 -0.8 39
2019-03-30 17:00:00 7.6 6 Sudoeste 14 Sudoeste 0 819.7 -1.3 38
2019-03-30 16:00:00 7.9 4 Sudeste 12 Oeste 0 820 -1.4 42
2019-03-30 15:00:00 7.9 4 Sudeste 10 Sur 0 820.4 -1.4 43
2019-03-30 14:00:00 7.3 0 Calma 27 Norte 0 821 -1 47
2019-03-30 13:00:00 7.8 7 Sur 19 Nordeste 0 821.4 -0.6 43
2019-03-30 12:00:00 5.6 6 Este 20 Nordeste 0 821.8 0 54
2019-03-30 11:00:00 7.5 5 Sudoeste 26 Sur 0 822 0.3 42
2019-03-30 10:00:00 4.7 20 Sur 30 Sur 0 822 0.4 56
2019-03-30 09:00:00 2 19 Sur 36 Sur 0 821.8 0.7 61
2019-03-30 08:00:00 0.9 28 Sur 46 Sur 0 821.7 0.3 64
2019-03-30 07:00:00 1.1 30 Sur 52 Sur 0 821.6 -0.2 59
2019-03-30 06:00:00 1.1 43 Sur 53 Sur 0 821.1 -1.1 68
2019-03-30 05:00:00 0.9 39 Sur 48 Sur 0 821.4 -0.9 75
2019-03-30 04:00:00 1.2 33 Sur 47 Sur 0 821.8 -0.9 75
2019-03-30 03:00:00 1.3 32 Sur 55 Sudeste 0 822.2 -0.8 76
2019-03-30 02:00:00 1 42 Sur 60 Sudeste 0 822.3 -0.9 79
2019-03-30 01:00:00 1.4 41 Sur 66 Sur 0 822.7 -0.4 79
2019-03-30 00:00:00 1.9 41 Sur 58 Sur 0 823 -0.5 71
2019-03-29 23:00:00 2.8 40 Sur 64 Sudoeste 0 823.2 -0.3 65
2019-03-29 22:00:00 3.2 42 Sur 61 Sur 0 823.1 -0.4 63
2019-03-29 21:00:00 4.5 27 Sur 49 Sudoeste 0 823.5 0.1 47
2019-03-29 20:00:00 4.6 23 Sur 48 Sur 0 823.5 0.3 41
2019-03-29 19:00:00 5.4 19 Sudoeste 42 Sudoeste 0 823.5 0 39
2019-03-29 18:00:00 7.1 13 Sudoeste 46 Sudoeste 0 823.4 -0.5 32
2019-03-29 17:00:00 8.1 14 Sur 46 Sudoeste 0 823.2 -1.1 32
2019-03-29 16:00:00 8 16 Sur 42 Sudeste 0 823.5 -1.1 31
2019-03-29 15:00:00 8 17 Sur 43 Sudeste 0 823.9 -0.7 34
2019-03-29 14:00:00 7.8 19 Sudeste 39 Sudeste 0 824.3 -0.5 34
2019-03-29 13:00:00 7.7 18 Sur 44 Sudeste 0 824.6 -0.1 38
2019-03-29 12:00:00 6.3 30 Sur 53 Sudeste 0 824.6 0 40
2019-03-29 11:00:00 5.3 34 Sur 57 Sur 0 824.8 0.1 44
2019-03-29 10:00:00 3.5 42 Sur 58 Sur 0 824.7 0 49
2019-03-29 09:00:00 1.8 45 Sur 56 Sur 0 824.6 -0.1 51
2019-03-29 08:00:00 1.3 41 Sur 53 Sur 0 824.7 0.1 54
2019-03-29 07:00:00 1.4 36 Sur 50 Sur 0 824.7 0 56
2019-03-29 06:00:00 1.9 32 Sur 51 Sur 0 824.7 -0.1 53
2019-03-29 05:00:00 1.8 33 Sur 57 Sur 0 824.6 -0.6 55
2019-03-29 04:00:00 1.3 45 Sur 59 Sur 0 824.7 -0.8 51
2019-03-29 03:00:00 2.7 42 Sur 60 Sur 0 824.8 -1.1 46
2019-03-29 02:00:00 3.1 43 Sur 64 Sudeste 0 825.2 -0.7 43
2019-03-29 01:00:00 4.6 32 Sur 43 Sur 0 825.5 -0.7 33
2019-03-29 00:00:00 5.5 22 Sur 37 Sudoeste 0 825.9 -0.3 32
2019-03-28 23:00:00 5.6 26 Sur 34 Sur 0 825.9 0.1 34
2019-03-28 22:00:00 6.2 19 Sur 28 Sur 0 826.2 0.6 32
2019-03-28 21:00:00 5.5 21 Sur 34 Sur 0 826.2 0.6 37
2019-03-28 20:00:00 5.1 28 Sur 36 Sudoeste 0 825.8 0.1 39
2019-03-28 19:00:00 6 28 Sur 35 Sur 0 825.6 -0.4 38
2019-03-28 18:00:00 10.4 8 Noroeste 20 Norte 0 825.6 -0.7 27
2019-03-28 17:00:00 10.7 8 Nordeste 31 Norte 0 825.7 -1 29
2019-03-28 16:00:00 11.3 8 Nordeste 21 Noroeste 0 826 -1 29
2019-03-28 15:00:00 11.1 9 Noroeste 26 Norte 0 826.3 -1 28
2019-03-28 14:00:00 10.6 8 Nordeste 24 Norte 0 826.7 -0.7 28
2019-03-28 13:00:00 9.2 11 Norte 22 Norte 0 827 -0.1 30
2019-03-28 12:00:00 9 10 Nordeste 28 Norte 0 827.3 0.5 31
2019-03-28 11:00:00 8.3 7 Sudeste 11 Sudeste 0 827.4 0.9 32
2019-03-28 10:00:00 6.3 4 Sudeste 9 Sudeste 0 827.1 0.7 38
2019-03-28 09:00:00 2.4 4 Sudeste 15 Sudeste 0 826.8 0.6 40
2019-03-28 08:00:00 2.5 11 Sur 23 Sur 0 826.5 0.5 40
2019-03-28 07:00:00 1.7 10 Sudoeste 26 Sur 0 826.4 0.5 45
2019-03-28 06:00:00 2 17 Sur 29 Sur 0 826.2 0.4 44
2019-03-28 05:00:00 2.8 23 Sur 34 Sur 0 826 0 41
2019-03-28 04:00:00 2.7 27 Sur 41 Sur 0 825.9 -0.3 41
2019-03-28 03:00:00 1.9 33 Sur 45 Sur 0 825.8 -0.4 39
2019-03-28 02:00:00 3.1 35 Sur 48 Sur 0 826 -0.1 34
2019-03-28 01:00:00 3.9 27 Sur 35 Sur 0 826.2 0.6 34
2019-03-28 00:00:00 4 11 Sur 36 Sudeste 0 826.2 0.6 27
2019-03-27 23:00:00 4.9 12 Sudeste 57 Sudeste 0 826.1 0.7 27
2019-03-27 22:00:00 4.1 36 Sudeste 50 Sudeste 0 825.6 0.4 32
2019-03-27 21:00:00 4.9 36 Sudeste 48 Sudeste 0 825.6 0.8 30
2019-03-27 20:00:00 6.2 22 Sudeste 34 Sudeste 0 825.4 0.7 24
2019-03-27 19:00:00 7.3 21 Sudeste 36 Sudeste 0 825.2 0.6 21
2019-03-27 18:00:00 9.7 12 Nordeste 34 Nordeste 0 824.8 0.2 17
2019-03-27 17:00:00 10.9 13 Nordeste 37 Norte 0 824.7 -0.2 16
2019-03-27 16:00:00 10.8 22 Norte 42 Norte 0 824.6 -0.7 17
2019-03-27 15:00:00 11.9 10 Este 27 Nordeste 0 824.6 -0.7 18
2019-03-27 14:00:00 11.4 9 Sur 23 Norte 0 824.9 -0.4 21
2019-03-27 13:00:00 9.9 12 Norte 25 Nordeste 0 825.3 0.3 22
2019-03-27 12:00:00 9.5 7 Norte 18 Nordeste 0 825.3 0.7 23
2019-03-27 11:00:00 8 9 Nordeste 19 Nordeste 0 825.3 1.1 23
2019-03-27 10:00:00 8.1 5 Sudeste 15 Nordeste 0 825 1.2 19
2019-03-27 09:00:00 3.2 5 Este 15 Este 0 824.6 1.1 22
2019-03-27 08:00:00 2.7 7 Sudeste 23 Sur 0 824.2 1 23
2019-03-27 07:00:00 2.7 17 Sudeste 23 Sudeste 0 823.8 0.9 22
2019-03-27 06:00:00 3.1 11 Sur 21 Sur 0 823.5 0.5 19
2019-03-27 05:00:00 3.1 7 Sur 40 Sudeste 0 823.2 0.2 19
2019-03-27 04:00:00 3.6 32 Sur 45 Sur 0 822.9 -0.4 21
2019-03-27 03:00:00 3.8 35 Sur 49 Sur 0 823 -0.4 18
2019-03-27 02:00:00 4.1 39 Sur 48 Sur 0 823 -0.1 17
2019-03-27 01:00:00 5.1 30 Sur 39 Sur 0 823.3 0.4 13
2019-03-27 00:00:00 4.6 20 Sur 30 Sur 0 823.4 0.5 23
2019-03-26 23:00:00 5.9 27 Sur 37 Sudeste 0 823.1 1 18
2019-03-26 22:00:00 7.7 30 Sur 44 Sur 0 822.9 0.5 9
2019-03-26 21:00:00 5.3 31 Sur 58 Sur 0 822.9 0.7 18
2019-03-26 20:00:00 5.5 32 Sur 63 Sur 0 822.1 0.2 28
2019-03-26 19:00:00 6.3 22 Sudeste 59 Sudoeste 0 822.4 0.2 29
2019-03-26 18:00:00 7.9 19 Este 55 Este 0 822.2 0 25
2019-03-26 17:00:00 8.9 19 Este 42 Este 0 821.9 -0.4 22
2019-03-26 16:00:00 9.8 16 Sudeste 50 Nordeste 0 822.2 0 16
2019-03-26 15:00:00 9.9 17 Nordeste 40 Sur 0 822.2 0.3 25
2019-03-26 14:00:00 11.2 13 Este 48 Sur 0 822.3 0.2 22
2019-03-26 13:00:00 9.6 22 Sur 63 Sur 0 822.2 0.2 29
2019-03-26 12:00:00 8.8 28 Sur 60 Sur 0 821.9 0.1 27
2019-03-26 11:00:00 7.4 32 Sur 80 Sur 0 822.1 0.7 25
2019-03-26 10:00:00 6.9 25 Sur 77 Sur 0 822 1.7 24
2019-03-26 09:00:00 5.6 18 Sur 69 Sur 0 821.8 1.1 16
2019-03-26 08:00:00 5.2 32 Sur 63 Sur 0 821.4 0.9 15
2019-03-26 07:00:00 4.1 47 Sudeste 62 Sur 0 820.3 -0.4 25
2019-03-26 06:00:00 2.7 25 Sudeste 42 Sudeste 0 820.7 -0.4 31
2019-03-26 05:00:00 3.7 20 Sudeste 41 Sudeste 0 820.5 -1.3 29
2019-03-26 04:00:00 4.5 25 Sudeste 43 Sudeste 0 820.7 -1.6 25
2019-03-26 03:00:00 4.3 27 Sudeste 58 Sudeste 0 821.1 -1.5 23
2019-03-26 02:00:00 4.9 30 Sudeste 55 Sudeste 0 821.8 -0.7 25
2019-03-26 01:00:00 4.7 10 Este 22 Nordeste 0 822.3 0 22
2019-03-26 00:00:00 3.7 9 Este 25 Sudeste 0 822.6 0.3 25
2019-03-25 23:00:00 5 18 Sudeste 40 Sudeste 0 822.5 0.4 20
2019-03-25 22:00:00 5.2 13 Sudeste 28 Este 0 822.3 -0.1 21
2019-03-25 21:00:00 5.2 12 Este 27 Este 0 822.3 -0.2 32
2019-03-25 20:00:00 5.4 12 Este 23 Este 0 822.1 -0.6 38
2019-03-25 19:00:00 6.4 10 Norte 25 Norte 0 822.4 -0.6 44
2019-03-25 18:00:00 8.6 13 Norte 31 Norte 0 822.5 -0.8 40
2019-03-25 17:00:00 9.3 18 Norte 34 Norte 0 822.7 -1.1 31
2019-03-25 16:00:00 10.2 15 Norte 39 Norte 0 823 -1.5 31
2019-03-25 15:00:00 10 16 Norte 37 Norte 0 823.3 -1.5 30
2019-03-25 14:00:00 9.9 17 Norte 32 Norte 0 823.8 -1.2 29
2019-03-25 13:00:00 9.3 17 Norte 33 Norte 0 824.5 -0.5 32
2019-03-25 12:00:00 9.1 11 Norte 28 Nordeste 0 824.8 0.2 39
2019-03-25 11:00:00 8.4 7 Nordeste 19 Norte 0 825 0.4 42
2019-03-25 10:00:00 7.6 9 Sudeste 12 Sudeste 0 825 0.4 47
2019-03-25 09:00:00 3 8 Sudoeste 11 Sudoeste 0 824.6 0.2 59
2019-03-25 08:00:00 3.2 3 Sudoeste 17 Sur 0 824.6 0.1 56
2019-03-25 07:00:00 3.2 7 Sudeste 14 Sur 0 824.6 0 55
2019-03-25 06:00:00 2.7 12 Sur 23 Sur 0 824.4 -0.5 58
2019-03-25 05:00:00 3.4 6 Sur 31 Sur 0 824.5 -0.7 55
2019-03-25 04:00:00 4.8 23 Sur 34 Sudeste 0 824.6 -0.9 48
2019-03-25 03:00:00 5.3 30 Sudeste 37 Sudeste 0 824.9 -1 47
2019-03-25 02:00:00 5.6 30 Sudeste 44 Sur 0 825.2 -0.7 47
2019-03-25 01:00:00 5.7 27 Sudeste 52 Sur 0 825.5 -0.6 47
2019-03-25 00:00:00 5.5 24 Sur 55 Sur 0 825.9 0.1 50